sensor_id;sensor_type;location;lat;lon;timestamp;P1;durP1;ratioP1;P2;durP2;ratioP2
44432;SDS011;30136;50.600;4.608;2022-09-17T00:00:36;14.23;;;6.70;;
44432;SDS011;30136;50.600;4.608;2022-09-17T00:01:39;17.37;;;7.70;;
44432;SDS011;30136;50.600;4.608;2022-09-17T00:02:39;13.90;;;7.20;;
44432;SDS011;30136;50.600;4.608;2022-09-17T00:03:43;13.40;;;7.53;;
44432;SDS011;30136;50.600;4.608;2022-09-17T00:04:52;14.73;;;6.90;;
44432;SDS011;30136;50.600;4.608;2022-09-17T00:06:00;15.30;;;7.38;;
44432;SDS011;30136;50.600;4.608;2022-09-17T00:07:03;13.00;;;7.10;;
44432;SDS011;30136;50.600;4.608;2022-09-17T00:08:05;12.55;;;7.18;;
44432;SDS011;30136;50.600;4.608;2022-09-17T00:09:09;15.73;;;7.50;;
44432;SDS011;30136;50.600;4.608;2022-09-17T00:10:10;12.93;;;6.95;;
44432;SDS011;30136;50.600;4.608;2022-09-17T00:11:15;14.13;;;6.65;;
44432;SDS011;30136;50.600;4.608;2022-09-17T00:12:20;13.47;;;6.97;;
44432;SDS011;30136;50.600;4.608;2022-09-17T00:13:21;17.93;;;7.10;;
44432;SDS011;30136;50.600;4.608;2022-09-17T00:14:22;13.15;;;6.70;;
44432;SDS011;30136;50.600;4.608;2022-09-17T00:15:23;11.20;;;6.93;;
44432;SDS011;30136;50.600;4.608;2022-09-17T00:16:31;14.10;;;7.18;;
44432;SDS011;30136;50.600;4.608;2022-09-17T00:17:38;13.90;;;6.73;;
44432;SDS011;30136;50.600;4.608;2022-09-17T00:18:39;15.80;;;7.18;;
44432;SDS011;30136;50.600;4.608;2022-09-17T00:19:41;12.00;;;6.75;;
44432;SDS011;30136;50.600;4.608;2022-09-17T00:20:42;13.93;;;6.57;;
44432;SDS011;30136;50.600;4.608;2022-09-17T00:21:45;15.30;;;6.67;;
44432;SDS011;30136;50.600;4.608;2022-09-17T00:22:46;11.80;;;6.45;;
44432;SDS011;30136;50.600;4.608;2022-09-17T00:23:47;10.77;;;6.33;;
44432;SDS011;30136;50.600;4.608;2022-09-17T00:24:52;13.10;;;6.63;;
44432;SDS011;30136;50.600;4.608;2022-09-17T00:25:53;14.53;;;6.63;;
44432;SDS011;30136;50.600;4.608;2022-09-17T00:26:55;14.27;;;6.63;;
44432;SDS011;30136;50.600;4.608;2022-09-17T00:27:55;11.07;;;6.00;;
44432;SDS011;30136;50.600;4.608;2022-09-17T00:28:57;13.23;;;6.30;;
44432;SDS011;30136;50.600;4.608;2022-09-17T00:29:59;10.57;;;6.00;;
44432;SDS011;30136;50.600;4.608;2022-09-17T00:31:05;11.75;;;6.43;;
44432;SDS011;30136;50.600;4.608;2022-09-17T00:32:07;10.50;;;6.17;;
44432;SDS011;30136;50.600;4.608;2022-09-17T00:33:10;10.77;;;5.93;;
44432;SDS011;30136;50.600;4.608;2022-09-17T00:34:13;14.90;;;6.73;;
44432;SDS011;30136;50.600;4.608;2022-09-17T00:35:14;12.38;;;6.20;;
44432;SDS011;30136;50.600;4.608;2022-09-17T00:36:15;14.47;;;6.60;;
44432;SDS011;30136;50.600;4.608;2022-09-17T00:37:19;12.60;;;6.23;;
44432;SDS011;30136;50.600;4.608;2022-09-17T00:38:21;9.67;;;5.73;;
44432;SDS011;30136;50.600;4.608;2022-09-17T00:39:21;10.95;;;5.88;;
44432;SDS011;30136;50.600;4.608;2022-09-17T00:40:22;12.48;;;6.25;;
44432;SDS011;30136;50.600;4.608;2022-09-17T00:41:25;10.85;;;5.75;;
44432;SDS011;30136;50.600;4.608;2022-09-17T00:42:29;11.80;;;5.23;;
44432;SDS011;30136;50.600;4.608;2022-09-17T00:43:37;12.67;;;6.07;;
44432;SDS011;30136;50.600;4.608;2022-09-17T00:45:54;9.77;;;5.90;;
44432;SDS011;30136;50.600;4.608;2022-09-17T00:46:55;10.20;;;5.78;;
44432;SDS011;30136;50.600;4.608;2022-09-17T00:48:01;10.73;;;5.93;;
44432;SDS011;30136;50.600;4.608;2022-09-17T00:50:23;12.53;;;6.33;;
44432;SDS011;30136;50.600;4.608;2022-09-17T00:51:36;10.43;;;5.77;;
44432;SDS011;30136;50.600;4.608;2022-09-17T00:52:48;11.50;;;5.10;;
44432;SDS011;30136;50.600;4.608;2022-09-17T00:53:55;9.77;;;5.47;;
44432;SDS011;30136;50.600;4.608;2022-09-17T00:55:31;8.93;;;5.10;;
44432;SDS011;30136;50.600;4.608;2022-09-17T00:56:33;10.97;;;5.37;;
44432;SDS011;30136;50.600;4.608;2022-09-17T00:57:36;9.97;;;5.60;;
44432;SDS011;30136;50.600;4.608;2022-09-17T00:58:38;11.20;;;5.47;;
44432;SDS011;30136;50.600;4.608;2022-09-17T00:59:39;9.73;;;4.97;;
44432;SDS011;30136;50.600;4.608;2022-09-17T01:00:41;10.73;;;5.57;;
44432;SDS011;30136;50.600;4.608;2022-09-17T01:01:42;11.32;;;5.95;;
44432;SDS011;30136;50.600;4.608;2022-09-17T01:02:43;9.60;;;5.93;;
44432;SDS011;30136;50.600;4.608;2022-09-17T01:03:44;9.95;;;5.80;;
44432;SDS011;30136;50.600;4.608;2022-09-17T01:04:45;9.27;;;5.00;;
44432;SDS011;30136;50.600;4.608;2022-09-17T01:05:48;13.30;;;6.13;;
44432;SDS011;30136;50.600;4.608;2022-09-17T01:07:30;10.27;;;4.87;;
44432;SDS011;30136;50.600;4.608;2022-09-17T01:09:58;12.80;;;5.40;;
44432;SDS011;30136;50.600;4.608;2022-09-17T01:24:46;7.93;;;4.40;;
44432;SDS011;30136;50.600;4.608;2022-09-17T01:32:35;11.97;;;4.30;;
44432;SDS011;30136;50.600;4.608;2022-09-17T01:35:41;8.90;;;4.50;;
44432;SDS011;30136;50.600;4.608;2022-09-17T01:37:04;8.97;;;5.13;;
44432;SDS011;30136;50.600;4.608;2022-09-17T01:38:28;8.13;;;4.57;;
44432;SDS011;30136;50.600;4.608;2022-09-17T01:42:57;7.00;;;3.97;;
44432;SDS011;30136;50.600;4.608;2022-09-17T01:45:16;9.77;;;4.83;;
44432;SDS011;30136;50.600;4.608;2022-09-17T01:46:29;7.47;;;4.47;;
44432;SDS011;30136;50.600;4.608;2022-09-17T01:47:51;11.97;;;4.40;;
44432;SDS011;30136;50.600;4.608;2022-09-17T01:48:58;10.73;;;4.13;;
44432;SDS011;30136;50.600;4.608;2022-09-17T01:50:04;6.47;;;4.13;;
44432;SDS011;30136;50.600;4.608;2022-09-17T01:51:12;7.33;;;4.20;;
44432;SDS011;30136;50.600;4.608;2022-09-17T01:52:18;10.97;;;4.47;;
44432;SDS011;30136;50.600;4.608;2022-09-17T01:53:22;10.70;;;3.93;;
44432;SDS011;30136;50.600;4.608;2022-09-17T01:54:33;7.97;;;3.73;;
44432;SDS011;30136;50.600;4.608;2022-09-17T01:55:42;6.13;;;3.83;;
44432;SDS011;30136;50.600;4.608;2022-09-17T01:56:54;7.27;;;4.53;;
44432;SDS011;30136;50.600;4.608;2022-09-17T01:58:02;10.47;;;4.23;;
44432;SDS011;30136;50.600;4.608;2022-09-17T01:59:30;11.33;;;4.70;;
44432;SDS011;30136;50.600;4.608;2022-09-17T02:00:57;9.03;;;4.27;;
44432;SDS011;30136;50.600;4.608;2022-09-17T02:02:06;7.50;;;3.93;;
44432;SDS011;30136;50.600;4.608;2022-09-17T02:03:20;10.93;;;4.40;;
44432;SDS011;30136;50.600;4.608;2022-09-17T02:04:32;7.10;;;3.93;;
44432;SDS011;30136;50.600;4.608;2022-09-17T02:05:47;8.10;;;4.03;;
44432;SDS011;30136;50.600;4.608;2022-09-17T02:07:01;9.90;;;4.30;;
44432;SDS011;30136;50.600;4.608;2022-09-17T02:08:22;6.23;;;3.50;;
44432;SDS011;30136;50.600;4.608;2022-09-17T02:09:26;10.33;;;4.87;;
44432;SDS011;30136;50.600;4.608;2022-09-17T02:10:38;5.77;;;3.67;;
44432;SDS011;30136;50.600;4.608;2022-09-17T02:11:52;6.10;;;3.50;;
44432;SDS011;30136;50.600;4.608;2022-09-17T02:12:59;6.10;;;4.00;;
44432;SDS011;30136;50.600;4.608;2022-09-17T02:14:14;7.30;;;3.50;;
44432;SDS011;30136;50.600;4.608;2022-09-17T02:15:22;11.33;;;4.03;;
44432;SDS011;30136;50.600;4.608;2022-09-17T02:16:32;7.23;;;4.13;;
44432;SDS011;30136;50.600;4.608;2022-09-17T02:17:45;9.60;;;3.63;;
44432;SDS011;30136;50.600;4.608;2022-09-17T02:20:07;5.80;;;3.40;;
44432;SDS011;30136;50.600;4.608;2022-09-17T02:21:14;5.67;;;3.40;;
44432;SDS011;30136;50.600;4.608;2022-09-17T02:22:40;9.57;;;3.97;;
44432;SDS011;30136;50.600;4.608;2022-09-17T02:23:50;12.20;;;3.90;;
44432;SDS011;30136;50.600;4.608;2022-09-17T02:25:14;7.97;;;3.20;;
44432;SDS011;30136;50.600;4.608;2022-09-17T02:26:43;9.17;;;3.43;;
44432;SDS011;30136;50.600;4.608;2022-09-17T02:29:05;10.52;;;4.00;;
44432;SDS011;30136;50.600;4.608;2022-09-17T02:30:13;5.80;;;3.20;;
44432;SDS011;30136;50.600;4.608;2022-09-17T02:31:15;8.83;;;4.07;;
44432;SDS011;30136;50.600;4.608;2022-09-17T02:32:16;6.47;;;3.10;;
44432;SDS011;30136;50.600;4.608;2022-09-17T02:33:17;8.13;;;3.50;;
44432;SDS011;30136;50.600;4.608;2022-09-17T02:34:19;7.40;;;3.27;;
44432;SDS011;30136;50.600;4.608;2022-09-17T02:35:21;7.10;;;3.50;;
44432;SDS011;30136;50.600;4.608;2022-09-17T02:36:22;7.10;;;3.20;;
44432;SDS011;30136;50.600;4.608;2022-09-17T02:38:25;5.90;;;3.13;;
44432;SDS011;30136;50.600;4.608;2022-09-17T02:39:30;6.80;;;3.00;;
44432;SDS011;30136;50.600;4.608;2022-09-17T02:40:34;6.20;;;3.30;;
44432;SDS011;30136;50.600;4.608;2022-09-17T02:44:30;8.17;;;3.57;;
44432;SDS011;30136;50.600;4.608;2022-09-17T02:48:55;7.13;;;3.33;;
44432;SDS011;30136;50.600;4.608;2022-09-17T02:51:44;6.93;;;3.57;;
44432;SDS011;30136;50.600;4.608;2022-09-17T02:55:07;10.27;;;3.40;;
44432;SDS011;30136;50.600;4.608;2022-09-17T03:00:41;6.27;;;3.23;;
44432;SDS011;30136;50.600;4.608;2022-09-17T03:02:07;6.33;;;3.13;;
44432;SDS011;30136;50.600;4.608;2022-09-17T03:04:28;5.77;;;2.97;;
44432;SDS011;30136;50.600;4.608;2022-09-17T03:05:31;6.37;;;3.07;;
44432;SDS011;30136;50.600;4.608;2022-09-17T03:06:35;6.20;;;3.27;;
44432;SDS011;30136;50.600;4.608;2022-09-17T03:07:37;7.50;;;3.37;;
44432;SDS011;30136;50.600;4.608;2022-09-17T03:08:39;11.90;;;2.92;;
44432;SDS011;30136;50.600;4.608;2022-09-17T03:09:41;6.83;;;3.07;;
44432;SDS011;30136;50.600;4.608;2022-09-17T03:10:42;5.10;;;2.90;;
44432;SDS011;30136;50.600;4.608;2022-09-17T03:11:43;4.70;;;2.57;;
44432;SDS011;30136;50.600;4.608;2022-09-17T03:12:44;6.70;;;2.65;;
44432;SDS011;30136;50.600;4.608;2022-09-17T03:13:45;6.43;;;3.47;;
44432;SDS011;30136;50.600;4.608;2022-09-17T03:14:46;5.13;;;3.17;;
44432;SDS011;30136;50.600;4.608;2022-09-17T03:15:47;5.67;;;2.90;;
44432;SDS011;30136;50.600;4.608;2022-09-17T03:16:48;5.75;;;3.10;;
44432;SDS011;30136;50.600;4.608;2022-09-17T03:17:49;4.77;;;2.80;;
44432;SDS011;30136;50.600;4.608;2022-09-17T03:18:50;6.43;;;2.73;;
44432;SDS011;30136;50.600;4.608;2022-09-17T03:19:51;6.23;;;3.00;;
44432;SDS011;30136;50.600;4.608;2022-09-17T03:20:52;4.80;;;2.53;;
44432;SDS011;30136;50.600;4.608;2022-09-17T03:21:53;6.13;;;3.37;;
44432;SDS011;30136;50.600;4.608;2022-09-17T03:22:54;5.57;;;2.73;;
44432;SDS011;30136;50.600;4.608;2022-09-17T03:23:55;6.77;;;2.97;;
44432;SDS011;30136;50.600;4.608;2022-09-17T03:24:58;5.00;;;2.73;;
44432;SDS011;30136;50.600;4.608;2022-09-17T03:25:59;4.85;;;2.97;;
44432;SDS011;30136;50.600;4.608;2022-09-17T03:27:00;6.18;;;3.22;;
44432;SDS011;30136;50.600;4.608;2022-09-17T03:28:01;7.00;;;3.10;;
44432;SDS011;30136;50.600;4.608;2022-09-17T03:29:02;4.82;;;2.60;;
44432;SDS011;30136;50.600;4.608;2022-09-17T03:31:06;4.85;;;2.65;;
44432;SDS011;30136;50.600;4.608;2022-09-17T03:32:06;5.20;;;2.80;;
44432;SDS011;30136;50.600;4.608;2022-09-17T03:33:07;4.70;;;3.00;;
44432;SDS011;30136;50.600;4.608;2022-09-17T03:34:08;4.40;;;2.63;;
44432;SDS011;30136;50.600;4.608;2022-09-17T03:35:09;6.57;;;2.90;;
44432;SDS011;30136;50.600;4.608;2022-09-17T03:36:10;4.43;;;2.60;;
44432;SDS011;30136;50.600;4.608;2022-09-17T03:37:10;3.77;;;2.40;;
44432;SDS011;30136;50.600;4.608;2022-09-17T03:39:13;8.57;;;2.83;;
44432;SDS011;30136;50.600;4.608;2022-09-17T03:40:14;4.72;;;2.75;;
44432;SDS011;30136;50.600;4.608;2022-09-17T03:41:15;5.97;;;2.72;;
44432;SDS011;30136;50.600;4.608;2022-09-17T03:42:16;6.17;;;2.50;;
44432;SDS011;30136;50.600;4.608;2022-09-17T03:43:17;6.03;;;2.65;;
44432;SDS011;30136;50.600;4.608;2022-09-17T03:44:18;4.17;;;2.37;;
44432;SDS011;30136;50.600;4.608;2022-09-17T03:45:20;3.53;;;2.60;;
44432;SDS011;30136;50.600;4.608;2022-09-17T03:46:21;8.02;;;2.78;;
44432;SDS011;30136;50.600;4.608;2022-09-17T03:47:22;6.55;;;2.92;;
44432;SDS011;30136;50.600;4.608;2022-09-17T03:48:23;6.15;;;2.90;;
44432;SDS011;30136;50.600;4.608;2022-09-17T03:49:23;5.18;;;2.63;;
44432;SDS011;30136;50.600;4.608;2022-09-17T03:50:24;5.50;;;2.83;;
44432;SDS011;30136;50.600;4.608;2022-09-17T03:51:25;5.80;;;2.60;;
44432;SDS011;30136;50.600;4.608;2022-09-17T03:52:26;3.60;;;2.38;;
44432;SDS011;30136;50.600;4.608;2022-09-17T03:53:27;7.53;;;3.40;;
44432;SDS011;30136;50.600;4.608;2022-09-17T03:54:28;4.00;;;2.37;;
44432;SDS011;30136;50.600;4.608;2022-09-17T03:55:29;8.07;;;2.55;;
44432;SDS011;30136;50.600;4.608;2022-09-17T03:56:30;4.05;;;2.50;;
44432;SDS011;30136;50.600;4.608;2022-09-17T03:57:30;3.17;;;2.20;;
44432;SDS011;30136;50.600;4.608;2022-09-17T03:58:31;5.97;;;2.83;;
44432;SDS011;30136;50.600;4.608;2022-09-17T03:59:33;4.40;;;2.70;;
44432;SDS011;30136;50.600;4.608;2022-09-17T04:00:34;3.37;;;2.10;;
44432;SDS011;30136;50.600;4.608;2022-09-17T04:01:38;4.80;;;2.40;;
44432;SDS011;30136;50.600;4.608;2022-09-17T04:02:39;3.58;;;2.13;;
44432;SDS011;30136;50.600;4.608;2022-09-17T04:03:40;4.33;;;2.60;;
44432;SDS011;30136;50.600;4.608;2022-09-17T04:04:41;6.65;;;2.70;;
44432;SDS011;30136;50.600;4.608;2022-09-17T04:05:42;6.47;;;2.60;;
44432;SDS011;30136;50.600;4.608;2022-09-17T04:06:43;4.60;;;2.47;;
44432;SDS011;30136;50.600;4.608;2022-09-17T04:07:43;8.57;;;2.97;;
44432;SDS011;30136;50.600;4.608;2022-09-17T04:08:44;5.60;;;2.63;;
44432;SDS011;30136;50.600;4.608;2022-09-17T04:09:45;4.93;;;2.30;;
44432;SDS011;30136;50.600;4.608;2022-09-17T04:10:46;3.50;;;2.30;;
44432;SDS011;30136;50.600;4.608;2022-09-17T04:12:48;5.03;;;2.00;;
44432;SDS011;30136;50.600;4.608;2022-09-17T04:13:49;3.73;;;2.27;;
44432;SDS011;30136;50.600;4.608;2022-09-17T04:14:50;4.47;;;2.40;;
44432;SDS011;30136;50.600;4.608;2022-09-17T04:15:51;5.90;;;2.30;;
44432;SDS011;30136;50.600;4.608;2022-09-17T04:16:52;3.58;;;2.47;;
44432;SDS011;30136;50.600;4.608;2022-09-17T04:17:56;4.60;;;2.40;;
44432;SDS011;30136;50.600;4.608;2022-09-17T04:18:57;5.87;;;2.47;;
44432;SDS011;30136;50.600;4.608;2022-09-17T04:19:58;3.83;;;2.45;;
44432;SDS011;30136;50.600;4.608;2022-09-17T04:20:59;3.80;;;2.53;;
44432;SDS011;30136;50.600;4.608;2022-09-17T04:22:00;4.13;;;2.30;;
44432;SDS011;30136;50.600;4.608;2022-09-17T04:23:00;5.83;;;2.57;;
44432;SDS011;30136;50.600;4.608;2022-09-17T04:24:01;5.33;;;2.70;;
44432;SDS011;30136;50.600;4.608;2022-09-17T04:25:02;3.08;;;1.92;;
44432;SDS011;30136;50.600;4.608;2022-09-17T04:26:03;6.07;;;2.85;;
44432;SDS011;30136;50.600;4.608;2022-09-17T04:27:04;3.80;;;2.08;;
44432;SDS011;30136;50.600;4.608;2022-09-17T04:28:06;5.47;;;2.50;;
44432;SDS011;30136;50.600;4.608;2022-09-17T04:29:07;3.47;;;2.45;;
44432;SDS011;30136;50.600;4.608;2022-09-17T04:30:09;5.47;;;2.27;;
44432;SDS011;30136;50.600;4.608;2022-09-17T04:31:11;4.63;;;2.17;;
44432;SDS011;30136;50.600;4.608;2022-09-17T04:32:12;3.78;;;2.17;;
44432;SDS011;30136;50.600;4.608;2022-09-17T04:33:13;5.80;;;2.47;;
44432;SDS011;30136;50.600;4.608;2022-09-17T04:34:14;4.32;;;2.40;;
44432;SDS011;30136;50.600;4.608;2022-09-17T04:35:15;4.10;;;2.50;;
44432;SDS011;30136;50.600;4.608;2022-09-17T04:36:16;4.35;;;2.00;;
44432;SDS011;30136;50.600;4.608;2022-09-17T04:37:17;2.92;;;1.88;;
44432;SDS011;30136;50.600;4.608;2022-09-17T04:38:18;4.93;;;2.40;;
44432;SDS011;30136;50.600;4.608;2022-09-17T04:39:21;3.67;;;1.90;;
44432;SDS011;30136;50.600;4.608;2022-09-17T04:40:22;5.90;;;2.30;;
44432;SDS011;30136;50.600;4.608;2022-09-17T04:41:24;5.57;;;2.37;;
44432;SDS011;30136;50.600;4.608;2022-09-17T04:42:25;3.00;;;2.10;;
44432;SDS011;30136;50.600;4.608;2022-09-17T04:43:26;4.70;;;2.40;;
44432;SDS011;30136;50.600;4.608;2022-09-17T04:44:27;5.03;;;2.53;;
44432;SDS011;30136;50.600;4.608;2022-09-17T04:45:28;4.57;;;2.20;;
44432;SDS011;30136;50.600;4.608;2022-09-17T04:46:32;6.07;;;1.87;;
44432;SDS011;30136;50.600;4.608;2022-09-17T04:47:33;3.42;;;2.03;;
44432;SDS011;30136;50.600;4.608;2022-09-17T04:48:37;4.73;;;2.07;;
44432;SDS011;30136;50.600;4.608;2022-09-17T04:49:38;5.95;;;1.85;;
44432;SDS011;30136;50.600;4.608;2022-09-17T04:50:39;3.22;;;2.20;;
44432;SDS011;30136;50.600;4.608;2022-09-17T04:51:40;5.07;;;2.30;;
44432;SDS011;30136;50.600;4.608;2022-09-17T04:52:42;3.23;;;2.00;;
44432;SDS011;30136;50.600;4.608;2022-09-17T04:53:44;7.10;;;2.00;;
44432;SDS011;30136;50.600;4.608;2022-09-17T04:54:44;2.95;;;1.73;;
44432;SDS011;30136;50.600;4.608;2022-09-17T04:55:45;4.97;;;1.93;;
44432;SDS011;30136;50.600;4.608;2022-09-17T04:56:46;4.37;;;2.00;;
44432;SDS011;30136;50.600;4.608;2022-09-17T04:57:47;3.43;;;2.10;;
44432;SDS011;30136;50.600;4.608;2022-09-17T04:58:50;4.47;;;2.40;;
44432;SDS011;30136;50.600;4.608;2022-09-17T04:59:51;4.18;;;2.03;;
44432;SDS011;30136;50.600;4.608;2022-09-17T05:00:52;3.53;;;2.20;;
44432;SDS011;30136;50.600;4.608;2022-09-17T05:01:53;3.80;;;2.15;;
44432;SDS011;30136;50.600;4.608;2022-09-17T05:02:54;4.47;;;2.00;;
44432;SDS011;30136;50.600;4.608;2022-09-17T05:03:55;3.88;;;2.15;;
44432;SDS011;30136;50.600;4.608;2022-09-17T05:04:56;2.67;;;1.80;;
44432;SDS011;30136;50.600;4.608;2022-09-17T05:05:57;3.90;;;1.83;;
44432;SDS011;30136;50.600;4.608;2022-09-17T05:06:58;4.45;;;1.73;;
44432;SDS011;30136;50.600;4.608;2022-09-17T05:07:59;5.15;;;1.98;;
44432;SDS011;30136;50.600;4.608;2022-09-17T05:09:00;3.25;;;1.90;;
44432;SDS011;30136;50.600;4.608;2022-09-17T05:10:01;7.35;;;1.95;;
44432;SDS011;30136;50.600;4.608;2022-09-17T05:11:02;3.78;;;1.60;;
44432;SDS011;30136;50.600;4.608;2022-09-17T05:12:03;3.87;;;2.10;;
44432;SDS011;30136;50.600;4.608;2022-09-17T05:13:04;3.73;;;1.97;;
44432;SDS011;30136;50.600;4.608;2022-09-17T05:14:05;3.83;;;2.27;;
44432;SDS011;30136;50.600;4.608;2022-09-17T05:15:06;3.65;;;1.80;;
44432;SDS011;30136;50.600;4.608;2022-09-17T05:16:07;3.05;;;2.22;;
44432;SDS011;30136;50.600;4.608;2022-09-17T05:17:08;6.18;;;1.67;;
44432;SDS011;30136;50.600;4.608;2022-09-17T05:18:09;2.28;;;1.60;;
44432;SDS011;30136;50.600;4.608;2022-09-17T05:19:10;2.70;;;1.75;;
44432;SDS011;30136;50.600;4.608;2022-09-17T05:20:11;5.45;;;2.03;;
44432;SDS011;30136;50.600;4.608;2022-09-17T05:21:14;3.70;;;1.83;;
44432;SDS011;30136;50.600;4.608;2022-09-17T05:22:15;4.00;;;1.83;;
44432;SDS011;30136;50.600;4.608;2022-09-17T05:23:16;3.20;;;1.77;;
44432;SDS011;30136;50.600;4.608;2022-09-17T05:24:17;3.72;;;1.98;;
44432;SDS011;30136;50.600;4.608;2022-09-17T05:25:19;4.32;;;1.90;;
44432;SDS011;30136;50.600;4.608;2022-09-17T05:26:24;3.50;;;1.90;;
44432;SDS011;30136;50.600;4.608;2022-09-17T05:27:25;4.47;;;1.73;;
44432;SDS011;30136;50.600;4.608;2022-09-17T05:28:26;2.85;;;1.60;;
44432;SDS011;30136;50.600;4.608;2022-09-17T05:29:27;4.73;;;1.97;;
44432;SDS011;30136;50.600;4.608;2022-09-17T05:30:28;2.70;;;1.88;;
44432;SDS011;30136;50.600;4.608;2022-09-17T05:31:29;3.28;;;1.75;;
44432;SDS011;30136;50.600;4.608;2022-09-17T05:32:30;7.37;;;1.90;;
44432;SDS011;30136;50.600;4.608;2022-09-17T05:33:31;3.85;;;1.90;;
44432;SDS011;30136;50.600;4.608;2022-09-17T05:34:32;5.38;;;1.98;;
44432;SDS011;30136;50.600;4.608;2022-09-17T05:35:33;3.38;;;1.73;;
44432;SDS011;30136;50.600;4.608;2022-09-17T05:36:37;5.43;;;1.57;;
44432;SDS011;30136;50.600;4.608;2022-09-17T05:37:38;7.65;;;1.80;;
44432;SDS011;30136;50.600;4.608;2022-09-17T05:38:39;6.00;;;1.73;;
44432;SDS011;30136;50.600;4.608;2022-09-17T05:39:40;2.08;;;1.52;;
44432;SDS011;30136;50.600;4.608;2022-09-17T05:40:41;4.70;;;2.10;;
44432;SDS011;30136;50.600;4.608;2022-09-17T05:41:42;4.30;;;1.98;;
44432;SDS011;30136;50.600;4.608;2022-09-17T05:42:43;5.05;;;1.60;;
44432;SDS011;30136;50.600;4.608;2022-09-17T05:43:43;2.55;;;1.65;;
44432;SDS011;30136;50.600;4.608;2022-09-17T05:44:44;3.90;;;1.88;;
44432;SDS011;30136;50.600;4.608;2022-09-17T05:45:45;3.92;;;2.10;;
44432;SDS011;30136;50.600;4.608;2022-09-17T05:46:46;4.67;;;1.90;;
44432;SDS011;30136;50.600;4.608;2022-09-17T05:47:47;3.60;;;1.60;;
44432;SDS011;30136;50.600;4.608;2022-09-17T05:48:56;5.43;;;2.10;;
44432;SDS011;30136;50.600;4.608;2022-09-17T05:49:57;4.50;;;1.93;;
44432;SDS011;30136;50.600;4.608;2022-09-17T05:50:58;2.92;;;1.60;;
44432;SDS011;30136;50.600;4.608;2022-09-17T05:51:59;3.20;;;1.60;;
44432;SDS011;30136;50.600;4.608;2022-09-17T05:53:05;5.40;;;1.80;;
44432;SDS011;30136;50.600;4.608;2022-09-17T05:54:10;4.30;;;1.83;;
44432;SDS011;30136;50.600;4.608;2022-09-17T05:55:10;2.63;;;1.70;;
44432;SDS011;30136;50.600;4.608;2022-09-17T05:56:11;5.10;;;1.87;;
44432;SDS011;30136;50.600;4.608;2022-09-17T05:57:12;2.78;;;1.35;;
44432;SDS011;30136;50.600;4.608;2022-09-17T05:58:15;5.33;;;2.10;;
44432;SDS011;30136;50.600;4.608;2022-09-17T05:59:18;2.97;;;1.70;;
44432;SDS011;30136;50.600;4.608;2022-09-17T06:00:19;3.72;;;1.80;;
44432;SDS011;30136;50.600;4.608;2022-09-17T06:01:20;4.93;;;2.10;;
44432;SDS011;30136;50.600;4.608;2022-09-17T06:02:20;3.03;;;1.60;;
44432;SDS011;30136;50.600;4.608;2022-09-17T06:03:21;6.78;;;1.77;;
44432;SDS011;30136;50.600;4.608;2022-09-17T06:04:22;2.78;;;1.67;;
44432;SDS011;30136;50.600;4.608;2022-09-17T06:05:23;2.45;;;1.55;;
44432;SDS011;30136;50.600;4.608;2022-09-17T06:06:26;3.03;;;1.52;;
44432;SDS011;30136;50.600;4.608;2022-09-17T06:07:30;6.20;;;1.63;;
44432;SDS011;30136;50.600;4.608;2022-09-17T06:08:34;4.03;;;1.90;;
44432;SDS011;30136;50.600;4.608;2022-09-17T06:09:36;4.90;;;2.10;;
44432;SDS011;30136;50.600;4.608;2022-09-17T06:10:37;4.33;;;1.53;;
44432;SDS011;30136;50.600;4.608;2022-09-17T06:11:38;5.63;;;1.95;;
44432;SDS011;30136;50.600;4.608;2022-09-17T06:12:39;6.93;;;1.60;;
44432;SDS011;30136;50.600;4.608;2022-09-17T06:13:40;3.20;;;1.70;;
44432;SDS011;30136;50.600;4.608;2022-09-17T06:14:42;8.33;;;1.77;;
44432;SDS011;30136;50.600;4.608;2022-09-17T06:15:50;5.13;;;1.67;;
44432;SDS011;30136;50.600;4.608;2022-09-17T06:16:54;4.93;;;1.73;;
44432;SDS011;30136;50.600;4.608;2022-09-17T06:18:56;3.93;;;1.57;;
44432;SDS011;30136;50.600;4.608;2022-09-17T06:19:57;3.03;;;1.75;;
44432;SDS011;30136;50.600;4.608;2022-09-17T06:20:59;3.47;;;1.30;;
44432;SDS011;30136;50.600;4.608;2022-09-17T06:22:02;2.47;;;1.37;;
44432;SDS011;30136;50.600;4.608;2022-09-17T06:23:04;3.03;;;1.63;;
44432;SDS011;30136;50.600;4.608;2022-09-17T06:24:05;4.40;;;1.52;;
44432;SDS011;30136;50.600;4.608;2022-09-17T06:25:09;3.73;;;1.60;;
44432;SDS011;30136;50.600;4.608;2022-09-17T06:26:11;4.47;;;1.60;;
44432;SDS011;30136;50.600;4.608;2022-09-17T06:27:12;3.40;;;1.95;;
44432;SDS011;30136;50.600;4.608;2022-09-17T06:28:12;5.93;;;1.70;;
44432;SDS011;30136;50.600;4.608;2022-09-17T06:29:13;2.93;;;1.37;;
44432;SDS011;30136;50.600;4.608;2022-09-17T06:30:14;2.47;;;1.60;;
44432;SDS011;30136;50.600;4.608;2022-09-17T06:31:15;4.27;;;1.80;;
44432;SDS011;30136;50.600;4.608;2022-09-17T06:32:16;3.30;;;1.38;;
44432;SDS011;30136;50.600;4.608;2022-09-17T06:33:17;4.05;;;1.30;;
44432;SDS011;30136;50.600;4.608;2022-09-17T06:34:18;6.20;;;1.50;;
44432;SDS011;30136;50.600;4.608;2022-09-17T06:35:19;8.93;;;1.70;;
44432;SDS011;30136;50.600;4.608;2022-09-17T06:36:20;4.57;;;1.80;;
44432;SDS011;30136;50.600;4.608;2022-09-17T06:37:28;4.43;;;1.45;;
44432;SDS011;30136;50.600;4.608;2022-09-17T06:38:31;5.93;;;1.73;;
44432;SDS011;30136;50.600;4.608;2022-09-17T06:39:34;5.30;;;1.67;;
44432;SDS011;30136;50.600;4.608;2022-09-17T06:41:37;6.77;;;1.70;;
44432;SDS011;30136;50.600;4.608;2022-09-17T06:42:38;3.23;;;1.53;;
44432;SDS011;30136;50.600;4.608;2022-09-17T06:43:39;3.73;;;1.30;;
44432;SDS011;30136;50.600;4.608;2022-09-17T06:44:39;4.60;;;2.03;;
44432;SDS011;30136;50.600;4.608;2022-09-17T06:45:40;2.00;;;1.43;;
44432;SDS011;30136;50.600;4.608;2022-09-17T06:47:43;4.07;;;1.50;;
44432;SDS011;30136;50.600;4.608;2022-09-17T06:48:44;3.20;;;1.50;;
44432;SDS011;30136;50.600;4.608;2022-09-17T06:49:44;4.10;;;1.43;;
44432;SDS011;30136;50.600;4.608;2022-09-17T06:50:46;4.22;;;1.55;;
44432;SDS011;30136;50.600;4.608;2022-09-17T06:51:47;2.47;;;1.50;;
44432;SDS011;30136;50.600;4.608;2022-09-17T06:52:48;4.13;;;1.58;;
44432;SDS011;30136;50.600;4.608;2022-09-17T06:53:53;3.73;;;1.70;;
44432;SDS011;30136;50.600;4.608;2022-09-17T06:54:54;2.85;;;1.65;;
44432;SDS011;30136;50.600;4.608;2022-09-17T06:55:56;2.83;;;1.60;;
44432;SDS011;30136;50.600;4.608;2022-09-17T06:56:58;2.37;;;1.37;;
44432;SDS011;30136;50.600;4.608;2022-09-17T06:57:59;3.38;;;1.70;;
44432;SDS011;30136;50.600;4.608;2022-09-17T06:59:00;3.17;;;1.45;;
44432;SDS011;30136;50.600;4.608;2022-09-17T07:00:02;4.10;;;1.63;;
44432;SDS011;30136;50.600;4.608;2022-09-17T07:01:03;2.93;;;1.60;;
44432;SDS011;30136;50.600;4.608;2022-09-17T07:02:04;3.38;;;1.38;;
44432;SDS011;30136;50.600;4.608;2022-09-17T07:03:05;5.22;;;1.60;;
44432;SDS011;30136;50.600;4.608;2022-09-17T07:04:08;3.27;;;1.40;;
44432;SDS011;30136;50.600;4.608;2022-09-17T07:05:09;2.67;;;1.45;;
44432;SDS011;30136;50.600;4.608;2022-09-17T07:06:10;4.70;;;1.38;;
44432;SDS011;30136;50.600;4.608;2022-09-17T07:07:11;6.70;;;1.83;;
44432;SDS011;30136;50.600;4.608;2022-09-17T07:08:12;3.63;;;1.52;;
44432;SDS011;30136;50.600;4.608;2022-09-17T07:09:13;3.58;;;1.45;;
44432;SDS011;30136;50.600;4.608;2022-09-17T07:10:14;8.05;;;1.63;;
44432;SDS011;30136;50.600;4.608;2022-09-17T07:11:18;8.60;;;1.50;;
44432;SDS011;30136;50.600;4.608;2022-09-17T07:12:19;15.30;;;1.50;;
44432;SDS011;30136;50.600;4.608;2022-09-17T07:13:22;37.07;;;1.90;;
44432;SDS011;30136;50.600;4.608;2022-09-17T07:14:23;25.40;;;2.00;;
44432;SDS011;30136;50.600;4.608;2022-09-17T07:15:24;21.67;;;1.73;;
44432;SDS011;30136;50.600;4.608;2022-09-17T07:16:25;16.13;;;1.40;;
44432;SDS011;30136;50.600;4.608;2022-09-17T07:17:28;9.40;;;1.17;;